Time;durP1;ratioP1;P1;durP2;ratioP2;P2;SDS_P1;SDS_P2;PMS_P1;PMS_P2;Temp;Humidity;BMP_temperature;BMP_pressure;BME280_temperature;BME280_humidity;BME280_pressure;Samples;Min_cycle;Max_cycle;Signal;HPM_P1;HPM_P2
2022/10/04 00:01:26;;;;;;;16.63;11.15;;;;;;;10.32;100.00;102177.97;6090965;23;20456;-84
2022/10/04 00:04:04;;;;;;;19.23;12.57;;;;;;;10.31;100.00;102190.41;6072145;23;20010;-84
2022/10/04 00:06:30;;;;;;;18.90;12.05;;;;;;;10.31;100.00;102182.44;6090092;23;20006;-84
2022/10/04 00:09:04;;;;;;;17.83;12.23;;;;;;;10.34;100.00;102195.66;6089726;23;20026;-84
2022/10/04 00:11:34;;;;;;;14.52;11.50;;;;;;;10.28;100.00;102179.84;6090607;23;20072;-84
2022/10/04 00:14:05;;;;;;;17.02;11.75;;;;;;;10.27;100.00;102191.41;6091844;23;20010;-84
2022/10/04 00:16:35;;;;;;;19.40;11.93;;;;;;;10.23;100.00;102189.72;6092448;23;20085;-84
2022/10/04 00:19:25;;;;;;;17.83;11.52;;;;;;;10.24;100.00;102191.47;6091517;23;20436;-84
2022/10/04 00:21:54;;;;;;;15.82;11.45;;;;;;;10.22;100.00;102187.97;6078559;23;20017;-84
2022/10/04 00:24:27;;;;;;;17.63;11.23;;;;;;;10.16;100.00;102178.41;6092169;23;20049;-84
2022/10/04 00:27:18;;;;;;;17.60;11.18;;;;;;;10.18;100.00;102165.91;6092456;23;20085;-84
2022/10/04 00:30:09;;;;;;;15.55;11.40;;;;;;;10.06;100.00;102165.38;6091335;23;20078;-85
2022/10/04 00:32:37;;;;;;;16.40;11.15;;;;;;;10.07;100.00;102170.66;6071352;23;20010;-84
2022/10/04 00:35:25;;;;;;;14.95;11.00;;;;;;;10.05;100.00;102164.50;6091394;23;20057;-84
2022/10/04 00:37:58;;;;;;;14.32;10.77;;;;;;;9.97;100.00;102156.72;6091575;23;20034;-84
2022/10/04 00:40:56;;;;;;;16.73;11.37;;;;;;;9.92;100.00;102153.34;6090920;23;20017;-84
2022/10/04 00:43:41;;;;;;;17.42;11.63;;;;;;;9.82;100.00;102151.81;6085159;23;20030;-84
2022/10/04 00:46:14;;;;;;;14.98;11.80;;;;;;;9.79;100.00;102145.75;6066148;23;20018;-84
2022/10/04 00:48:45;;;;;;;14.43;12.52;;;;;;;9.71;100.00;102146.81;6091297;23;20006;-84
2022/10/04 00:51:37;;;;;;;15.70;11.90;;;;;;;9.71;100.00;102149.47;6065295;23;20437;-84
2022/10/04 00:54:18;;;;;;;16.70;12.00;;;;;;;9.66;100.00;102156.69;6091738;23;20025;-84
2022/10/04 00:56:53;;;;;;;15.10;11.57;;;;;;;9.59;100.00;102146.25;6066187;23;20010;-84
2022/10/04 00:59:40;;;;;;;15.50;12.00;;;;;;;9.61;100.00;102149.72;6064824;23;20041;-84
2022/10/04 01:02:27;;;;;;;15.30;12.27;;;;;;;9.61;100.00;102149.72;6091623;23;20002;-84
2022/10/04 01:05:01;;;;;;;21.20;12.65;;;;;;;9.61;100.00;102144.41;6090594;23;20007;-82
2022/10/04 01:07:34;;;;;;;16.77;12.32;;;;;;;9.53;100.00;102139.31;6091221;23;20020;-83
2022/10/04 01:10:05;;;;;;;17.48;12.50;;;;;;;9.56;100.00;102138.34;6091191;23;20271;-83
2022/10/04 01:12:39;;;;;;;18.77;11.90;;;;;;;9.54;100.00;102126.91;6091880;23;20006;-83
2022/10/04 01:15:05;;;;;;;;;;;;;;;9.56;100.00;102130.38;6092686;23;20111;-83
2022/10/04 01:17:30;;;;;;;19.27;13.00;;;;;;;9.45;100.00;102126.22;6066232;23;20335;-83
2022/10/04 01:19:56;;;;;;;17.88;13.00;;;;;;;9.46;100.00;102119.13;6090757;23;20115;-83
2022/10/04 01:22:34;;;;;;;17.35;12.55;;;;;;;9.43;100.00;102114.75;6071705;23;20032;-83
2022/10/04 01:24:59;;;;;;;19.33;12.93;;;;;;;9.37;100.00;102109.59;6105491;23;20002;-83
2022/10/04 01:27:43;;;;;;;17.45;13.02;;;;;;;9.36;100.00;102105.19;6107013;23;19983;-83
2022/10/04 01:30:10;;;;;;;;;;;;;;;9.39;100.00;102112.22;6105900;23;20440;-84
2022/10/04 01:32:37;;;;;;;16.75;12.60;;;;;;;9.32;100.00;102107.97;6104617;23;19916;-83
2022/10/04 01:35:03;;;;;;;17.05;13.00;;;;;;;9.30;100.00;102099.16;6077744;23;20445;-83
2022/10/04 01:37:29;;;;;;;19.67;13.65;;;;;;;9.27;100.00;102108.06;6092051;23;20017;-83
2022/10/04 01:39:54;;;;;;;16.52;14.02;;;;;;;9.25;100.00;102101.06;6090656;23;20010;-83
2022/10/04 01:42:26;;;;;;;18.92;14.15;;;;;;;9.26;100.00;102103.69;6099013;23;20006;-83
2022/10/04 01:45:06;;;;;;;14.45;12.77;;;;;;;9.23;100.00;102094.00;6073443;23;20066;-83
2022/10/04 01:47:39;;;;;;;19.27;13.35;;;;;;;9.14;100.00;102086.25;6090906;23;20065;-83
2022/10/04 01:50:12;;;;;;;16.83;13.88;;;;;;;9.16;100.00;102099.53;6093088;23;20006;-83
2022/10/04 01:52:45;;;;;;;19.75;15.23;;;;;;;9.09;100.00;102103.25;6093985;23;20002;-83
2022/10/04 01:55:13;;;;;;;16.85;14.18;;;;;;;9.06;100.00;102098.84;6107633;23;20006;-83
2022/10/04 01:57:47;;;;;;;19.88;14.38;;;;;;;9.05;100.00;102094.47;6118486;23;20030;-84
2022/10/04 02:00:14;;;;;;;18.52;15.07;;;;;;;8.93;100.00;102095.63;6120587;23;20022;-84
2022/10/04 02:02:56;;;;;;;19.02;15.43;;;;;;;8.94;100.00;102092.06;6116212;23;20016;-83
2022/10/04 02:05:35;;;;;;;19.20;15.35;;;;;;;8.92;100.00;102093.03;6096532;23;20029;-83
2022/10/04 02:08:04;;;;;;;20.10;15.98;;;;;;;8.91;100.00;102085.97;6069219;23;20021;-83
2022/10/04 02:10:32;;;;;;;19.67;15.98;;;;;;;8.86;100.00;102078.13;6095525;23;20014;-83
2022/10/04 02:12:59;;;;;;;18.52;16.45;;;;;;;8.86;100.00;102086.09;6096192;23;20704;-83
2022/10/04 02:15:26;;;;;;;19.05;16.05;;;;;;;8.84;100.00;102081.72;6094672;23;20037;-83
2022/10/04 02:17:54;;;;;;;17.60;15.85;;;;;;;8.82;100.00;102071.16;6094224;23;20013;-84
2022/10/04 02:20:24;;;;;;;20.08;16.70;;;;;;;8.77;100.00;102078.31;6067666;23;20018;-83
2022/10/04 02:22:55;;;;;;;22.08;16.98;;;;;;;8.78;100.00;102072.13;6067264;23;20553;-83
2022/10/04 02:25:21;;;;;;;19.33;16.23;;;;;;;8.79;100.00;102068.56;6093282;23;20006;-83
2022/10/04 02:27:50;;;;;;;20.42;16.80;;;;;;;8.69;100.00;102062.59;6092962;23;20010;-83
2022/10/04 02:30:15;;;;;;;22.65;18.05;;;;;;;8.71;100.00;102059.91;6095078;23;20022;-83
2022/10/04 02:32:58;;;;;;;23.20;16.95;;;;;;;8.72;100.00;102058.97;6094213;23;20007;-83
2022/10/04 02:35:35;;;;;;;22.75;17.42;;;;;;;8.69;100.00;102053.75;6092898;23;20006;-83
2022/10/04 02:38:34;;;;;;;20.77;18.00;;;;;;;8.68;100.00;102049.34;6093282;23;20439;-83
2022/10/04 02:41:11;;;;;;;24.38;17.85;;;;;;;8.64;100.00;102047.66;6075772;23;20090;-83
2022/10/04 02:43:56;;;;;;;19.70;16.88;;;;;;;8.61;100.00;102043.31;6092241;23;20436;-83
2022/10/04 02:46:33;;;;;;;18.48;16.25;;;;;;;8.58;100.00;102034.56;6091475;23;20102;-83
2022/10/04 02:49:03;;;;;;;21.55;16.42;;;;;;;8.57;100.00;102027.47;6090857;23;20089;-83
2022/10/04 02:51:58;;;;;;;22.45;16.85;;;;;;;8.55;100.00;102024.00;6091227;23;20030;-83
2022/10/04 02:54:29;;;;;;;19.50;15.90;;;;;;;8.53;100.00;102020.50;6082838;23;20010;-83
2022/10/04 02:56:55;;;;;;;19.30;15.68;;;;;;;8.50;100.00;102020.59;6090543;23;20336;-82
2022/10/04 02:59:21;;;;;;;18.75;14.88;;;;;;;8.44;100.00;102011.88;6089999;23;20010;-83
2022/10/04 03:01:53;;;;;;;22.45;15.07;;;;;;;8.44;100.00;102000.38;6091011;23;20454;-82
2022/10/04 03:04:25;;;;;;;17.60;15.05;;;;;;;8.43;100.00;101999.50;6090202;23;20062;-83
2022/10/04 03:06:52;;;;;;;18.25;14.73;;;;;;;8.37;100.00;101994.34;6090057;23;20034;-82
2022/10/04 03:09:21;;;;;;;16.58;14.60;;;;;;;8.35;100.00;101996.13;6090314;23;20008;-83
2022/10/04 03:11:49;;;;;;;20.27;14.43;;;;;;;8.30;100.00;101983.88;6090929;23;20013;-83
2022/10/04 03:14:21;;;;;;;17.45;14.63;;;;;;;8.30;100.00;101984.75;6090095;23;20101;-83
2022/10/04 03:16:49;;;;;;;17.20;14.02;;;;;;;8.26;100.00;101984.84;6090664;23;20017;-83
2022/10/04 03:19:16;;;;;;;20.13;15.63;;;;;;;8.22;100.00;101982.25;6090310;23;20014;-83
2022/10/04 03:21:45;;;;;;;19.60;14.85;;;;;;;8.22;100.00;101978.75;6065509;23;20532;-83
2022/10/04 03:24:17;;;;;;;26.48;15.63;;;;;;;8.16;100.00;101979.78;6090516;23;20009;-82
2022/10/04 03:26:46;;;;;;;20.30;15.90;;;;;;;8.17;100.00;101985.94;6090882;23;20029;-83
2022/10/04 03:29:15;;;;;;;22.13;16.80;;;;;;;8.13;100.00;101979.84;6090096;23;20018;-83
2022/10/04 03:31:44;;;;;;;20.85;15.60;;;;;;;8.08;100.00;101970.25;6091310;23;20006;-83
2022/10/04 03:34:36;;;;;;;19.67;15.57;;;;;;;8.10;100.00;101973.72;6090257;23;20322;-83
2022/10/04 03:37:06;;;;;;;19.42;14.63;;;;;;;8.07;100.00;101972.03;6086127;23;20456;-83
2022/10/04 03:39:41;;;;;;;20.92;14.57;;;;;;;8.04;100.00;101964.13;6090067;23;20009;-83
2022/10/04 03:42:13;;;;;;;19.80;15.18;;;;;;;8.05;100.00;101971.16;6090984;23;20449;-83
2022/10/04 03:44:40;;;;;;;18.42;14.63;;;;;;;7.98;100.00;101969.56;6065340;23;20328;-83
2022/10/04 03:47:13;;;;;;;18.33;14.30;;;;;;;7.97;100.00;101966.03;6064003;23;20013;-83
2022/10/04 03:49:40;;;;;;;21.27;14.75;;;;;;;7.90;100.00;101956.50;6090572;23;20034;-83
2022/10/04 03:52:07;;;;;;;19.45;14.35;;;;;;;7.90;100.00;101953.84;6090047;23;20053;-83
2022/10/04 03:54:34;;;;;;;18.70;14.23;;;;;;;7.93;100.00;101959.06;6090095;23;20006;-83
2022/10/04 03:57:00;;;;;;;15.73;14.02;;;;;;;7.86;100.00;101954.81;6063756;23;20050;-83
2022/10/04 03:59:27;;;;;;;18.40;14.20;;;;;;;7.87;100.00;101955.69;6089431;23;20009;-83
2022/10/04 04:02:16;;;;;;;16.90;14.15;;;;;;;7.83;100.00;101948.72;6089998;23;20437;-83
2022/10/04 04:04:55;;;;;;;21.10;14.65;;;;;;;7.80;100.00;101943.47;6090831;23;20005;-83
2022/10/04 04:07:29;;;;;;;21.17;14.45;;;;;;;7.81;100.00;101948.72;6088879;23;20042;-83
2022/10/04 04:10:04;;;;;;;19.55;14.20;;;;;;;7.77;100.00;101952.34;6089983;23;20017;-83
2022/10/04 04:12:46;;;;;;;17.33;14.55;;;;;;;7.76;100.00;101953.25;6089439;23;20006;-83
2022/10/04 04:15:13;;;;;;;18.67;13.77;;;;;;;7.72;100.00;101951.56;6064615;23;20053;-83
2022/10/04 04:17:42;;;;;;;18.92;13.25;;;;;;;7.72;100.00;101948.91;6064006;23;20433;-83
2022/10/04 04:20:23;;;;;;;18.20;13.55;;;;;;;7.71;100.00;101950.69;6090215;23;20015;-83
2022/10/04 04:22:58;;;;;;;19.33;13.38;;;;;;;7.68;100.00;101948.13;6090612;23;20125;-83
2022/10/04 04:25:25;;;;;;;16.17;12.90;;;;;;;7.71;100.00;101948.06;6090140;23;20081;-83
2022/10/04 04:27:58;;;;;;;16.98;12.85;;;;;;;7.72;100.00;101954.22;6088763;23;20009;-84
2022/10/04 04:30:24;;;;;;;18.08;12.93;;;;;;;7.71;100.00;101940.09;6090346;23;20014;-83
2022/10/04 04:32:54;;;;;;;18.15;13.43;;;;;;;7.77;100.00;101944.38;6102540;23;20007;-84
2022/10/04 04:35:31;;;;;;;14.38;12.57;;;;;;;7.80;100.00;101941.69;6118252;23;20015;-83
2022/10/04 04:38:23;;;;;;;18.13;12.50;;;;;;;7.85;100.00;101944.22;6117558;23;20021;-83
2022/10/04 04:40:54;;;;;;;15.57;12.35;;;;;;;7.87;100.00;101950.38;6086728;23;20480;-83
2022/10/04 04:43:23;;;;;;;15.82;11.82;;;;;;;7.88;100.00;101950.34;6095221;23;20288;-83
2022/10/04 04:45:49;;;;;;;19.02;12.27;;;;;;;7.84;100.00;101950.44;6094656;23;20003;-83
2022/10/04 04:48:17;;;;;;;16.83;11.60;;;;;;;7.78;100.00;101948.81;6094101;23;20006;-83
2022/10/04 04:50:50;;;;;;;15.63;12.10;;;;;;;7.80;100.00;101944.34;6093051;23;20003;-83
2022/10/04 04:53:21;;;;;;;12.88;11.30;;;;;;;7.78;100.00;101938.22;6092813;23;20009;-83
2022/10/04 04:55:52;;;;;;;15.57;11.63;;;;;;;7.80;100.00;101938.16;6093310;23;20337;-83
2022/10/04 04:58:23;;;;;;;18.77;12.07;;;;;;;7.79;100.00;101931.13;6092875;23;20002;-83
2022/10/04 05:01:07;;;;;;;15.95;11.65;;;;;;;7.78;100.00;101924.97;6094126;23;20029;-83
2022/10/04 05:03:33;;;;;;;18.23;11.20;;;;;;;7.85;100.00;101921.25;6091769;23;20006;-83
2022/10/04 05:06:01;;;;;;;15.45;11.32;;;;;;;7.89;100.00;101916.75;6092312;23;20010;-83
2022/10/04 05:08:32;;;;;;;14.93;11.38;;;;;;;7.90;100.00;101915.84;6091226;23;20018;-84
2022/10/04 05:10:57;;;;;;;16.58;12.07;;;;;;;7.94;100.00;101918.41;6092075;23;20002;-84
2022/10/04 05:13:42;;;;;;;16.33;11.55;;;;;;;7.96;100.00;101918.38;6092534;23;20005;-83
2022/10/04 05:16:17;;;;;;;15.77;11.88;;;;;;;7.98;100.00;101916.53;6092432;23;20006;-85
2022/10/04 05:18:44;;;;;;;17.20;12.57;;;;;;;7.99;100.00;101919.16;6095722;23;20002;-82
2022/10/04 05:21:41;;;;;;;14.32;11.45;;;;;;;7.99;100.00;101916.50;6095077;23;20010;-82
2022/10/04 05:24:27;;;;;;;13.55;11.30;;;;;;;7.98;100.00;101922.72;6076867;23;20093;-83
2022/10/04 05:27:05;;;;;;;14.30;10.05;;;;;;;7.91;100.00;101914.94;6091629;23;20010;-84
2022/10/04 05:29:36;;;;;;;16.58;10.75;;;;;;;7.84;100.00;101932.75;6066370;23;20026;-82
2022/10/04 05:32:18;;;;;;;16.25;10.40;;;;;;;7.80;100.00;101932.84;6092366;23;20043;-82
2022/10/04 05:34:48;;;;;;;14.55;9.07;;;;;;;7.76;100.00;101934.69;6092756;23;20002;-83
2022/10/04 05:37:44;;;;;;;14.10;9.60;;;;;;;7.71;100.00;101928.63;6092342;23;20006;-84
2022/10/04 05:40:12;;;;;;;13.80;9.70;;;;;;;7.65;100.00;101932.31;6092489;23;20083;-84
2022/10/04 05:42:48;;;;;;;13.25;9.63;;;;;;;7.61;100.00;101927.97;6094242;23;20105;-84
2022/10/04 05:45:22;;;;;;;21.00;10.50;;;;;;;7.59;100.00;101931.53;6110789;23;20009;-83
2022/10/04 05:47:51;;;;;;;18.00;11.18;;;;;;;7.57;100.00;101930.72;6094728;23;20464;-83
2022/10/04 05:50:21;;;;;;;16.48;10.35;;;;;;;7.48;100.00;101915.84;6098700;23;20002;-83
2022/10/04 05:52:50;;;;;;;17.27;10.80;;;;;;;7.52;100.00;101925.50;6098596;23;20414;-83
2022/10/04 05:55:22;;;;;;;13.35;10.55;;;;;;;7.46;100.00;101922.97;6095184;23;20014;-83
2022/10/04 05:58:07;;;;;;;15.02;10.77;;;;;;;7.49;100.00;101922.94;6091370;23;20463;-83
2022/10/04 06:00:55;;;;;;;18.77;11.63;;;;;;;7.50;100.00;101935.25;6091079;23;20662;-83
2022/10/04 06:03:45;;;;;;;17.13;11.95;;;;;;;7.51;100.00;101936.13;6089429;23;20006;-83
2022/10/04 06:06:30;;;;;;;21.15;13.85;;;;;;;7.55;100.00;101943.97;6089529;23;20006;-83
2022/10/04 06:09:09;;;;;;;15.32;11.45;;;;;;;7.55;100.00;101948.41;6089909;23;20085;-83
2022/10/04 06:12:04;;;;;;;14.45;11.75;;;;;;;7.59;100.00;101955.38;6091401;23;20010;-83
2022/10/04 06:14:45;;;;;;;15.27;11.40;;;;;;;7.60;100.00;101951.81;6091116;23;20013;-83
2022/10/04 06:17:26;;;;;;;15.85;10.95;;;;;;;7.58;100.00;101948.34;6089878;23;20034;-82
2022/10/04 06:20:22;;;;;;;16.48;11.20;;;;;;;7.65;100.00;101956.16;6066289;23;20089;-83
2022/10/04 06:22:56;;;;;;;16.02;11.35;;;;;;;7.68;100.00;101937.50;6065562;23;20006;-83
2022/10/04 06:25:35;;;;;;;15.52;10.93;;;;;;;7.83;100.00;101948.72;6091111;23;20010;-83
2022/10/04 06:28:29;;;;;;;17.88;11.40;;;;;;;7.99;100.00;101960.72;6090809;23;20007;-84
2022/10/04 06:31:31;;;;;;;17.25;10.82;;;;;;;8.15;100.00;101955.91;6091502;23;20013;-83
2022/10/04 06:34:21;;;;;;;16.98;10.55;;;;;;;8.32;100.00;101958.19;6090690;23;20037;-82
2022/10/04 06:37:01;;;;;;;14.02;10.07;;;;;;;8.41;100.00;101953.56;6090742;23;20143;-82
2022/10/04 06:39:29;;;;;;;15.52;9.63;;;;;;;8.50;100.00;101951.59;6090921;23;20081;-83
2022/10/04 06:42:04;;;;;;;16.23;9.50;;;;;;;8.56;100.00;101949.66;6090816;23;20404;-83
2022/10/04 06:44:35;;;;;;;15.60;10.50;;;;;;;8.62;100.00;101944.22;6090785;23;20006;-83
2022/10/04 06:47:49;;;;;;;14.05;9.82;;;;;;;8.69;100.00;101944.91;6090125;23;20541;-83
2022/10/04 06:50:15;;;;;;;16.83;10.68;;;;;;;8.71;100.00;101949.28;5973876;24;20012;-82
2022/10/04 06:52:55;;;;;;;18.85;10.73;;;;;;;8.75;100.00;101939.47;5973482;24;20012;-82
2022/10/04 06:55:36;;;;;;;16.70;9.93;;;;;;;8.81;100.00;101943.72;5950187;24;20014;-82
2022/10/04 06:58:07;;;;;;;14.85;9.57;;;;;;;8.81;100.00;101947.25;5974080;24;20483;-82
2022/10/04 07:00:44;;;;;;;13.80;9.45;;;;;;;8.81;100.00;101943.72;5950867;24;20355;-82
2022/10/04 07:03:36;;;;;;;15.38;9.38;;;;;;;8.72;100.00;101937.75;5950024;24;20431;-82
2022/10/04 07:06:10;;;;;;;16.52;9.23;;;;;;;8.65;100.00;101945.91;5948576;24;20015;-83
2022/10/04 07:08:54;;;;;;;11.38;8.85;;;;;;;8.60;100.00;101937.19;5978320;24;20091;-83
2022/10/04 07:11:26;;;;;;;10.30;8.85;;;;;;;8.48;100.00;101944.56;5962557;24;20031;-83
2022/10/04 07:14:10;;;;;;;12.98;8.82;;;;;;;8.41;100.00;101940.31;5986137;24;20046;-83
2022/10/04 07:16:47;;;;;;;12.85;9.10;;;;;;;8.31;100.00;101930.78;5985727;24;20016;-83
2022/10/04 07:19:18;;;;;;;13.05;9.48;;;;;;;8.32;100.00;101934.31;5981113;24;20048;-83
2022/10/04 07:22:11;;;;;;;15.90;9.77;;;;;;;8.29;100.00;101921.13;5958971;24;20008;-83
2022/10/04 07:25:07;;;;;;;12.77;9.13;;;;;;;8.27;100.00;101926.47;5978301;24;20618;-83
2022/10/04 07:29:19;;;;;;;12.57;9.25;;;;;;;8.30;100.00;101923.75;6077081;23;20013;-83
2022/10/04 07:30:56;;;;;;;13.00;9.07;;;;;;;8.31;100.00;101924.59;6093762;23;20093;-84
2022/10/04 07:33:26;;;;;;;15.52;9.32;;;;;;;8.36;100.00;101917.41;6093259;23;20030;-87
2022/10/04 07:36:00;;;;;;;12.18;9.07;;;;;;;8.43;100.00;101914.59;6093560;23;20010;-86
2022/10/04 07:38:27;;;;;;;;;;;;;;;8.45;100.00;101918.09;6093044;23;20013;-85
2022/10/04 07:41:03;;;;;;;13.43;9.20;;;;;;;8.52;100.00;101923.25;6066811;23;19932;-84
2022/10/04 07:43:35;;;;;;;14.57;9.38;;;;;;;8.58;100.00;101929.28;6091209;23;20006;-84
2022/10/04 07:46:11;;;;;;;11.93;9.73;;;;;;;8.61;100.00;101923.00;6090140;23;20013;-85
2022/10/04 07:48:39;;;;;;;17.45;10.30;;;;;;;8.75;100.00;101925.31;6091138;23;20011;-83
2022/10/04 07:51:18;;;;;;;15.20;10.27;;;;;;;8.78;100.00;101926.13;6091879;23;20006;-84
2022/10/04 07:53:53;;;;;;;13.80;9.23;;;;;;;8.89;100.00;101923.16;6093920;23;20065;-84
2022/10/04 07:56:25;;;;;;;14.82;9.32;;;;;;;8.99;100.00;101930.00;6092150;23;20014;-85
2022/10/04 07:59:02;;;;;;;15.40;9.90;;;;;;;9.14;100.00;101940.16;6096880;23;20006;-84
2022/10/04 08:01:41;;;;;;;14.15;9.80;;;;;;;9.26;100.00;101941.63;6096838;23;20080;-84
2022/10/04 08:04:28;;;;;;;14.15;9.85;;;;;;;9.45;100.00;101944.66;6093337;23;20093;-85
2022/10/04 08:07:02;;;;;;;14.45;9.63;;;;;;;9.57;100.00;101930.09;6089856;23;20010;-84
2022/10/04 08:09:33;;;;;;;;;;;;;;;9.68;100.00;101926.22;6092099;23;20336;-84
2022/10/04 08:12:21;;;;;;;14.30;9.30;;;;;;;10.20;100.00;101919.31;6091069;23;19905;-85
2022/10/04 08:14:54;;;;;;;15.80;9.05;;;;;;;11.16;98.37;101923.16;6064864;23;20012;-85
2022/10/04 08:17:40;;;;;;;12.43;8.77;;;;;;;11.94;93.86;101917.56;6091105;23;20013;-84
2022/10/04 08:20:56;;;;;;;11.95;8.02;;;;;;;12.90;91.76;101917.16;6090351;23;20090;-86
2022/10/04 08:23:25;;;;;;;11.23;7.28;;;;;;;14.10;82.88;101918.78;6025888;23;20010;-85
2022/10/04 08:26:11;;;;;;;11.63;6.72;;;;;;;15.36;80.64;101910.56;6089740;23;20006;-84
2022/10/04 08:32:00;;;;;;;7.70;5.50;;;;;;;17.54;73.35;101908.63;6090610;23;20049;-85
2022/10/04 08:34:54;;;;;;;8.68;5.97;;;;;;;18.33;61.90;101902.59;6089866;23;20672;-85
2022/10/04 08:37:29;;;;;;;;;;;;;;;19.09;77.50;101908.19;6066994;23;20037;-85
2022/10/04 08:40:07;;;;;;;8.18;5.47;;;;;;;20.08;64.29;101910.13;6066348;23;20092;-85
2022/10/04 08:42:54;;;;;;;8.20;5.28;;;;;;;20.80;56.78;101902.84;6066102;23;20393;-85
2022/10/04 08:45:23;;;;;;;7.93;4.72;;;;;;;20.80;55.19;101910.97;6065072;23;20353;-85
2022/10/04 08:47:57;;;;;;;8.05;4.82;;;;;;;20.33;58.04;101918.13;6091653;23;20009;-85
2022/10/04 08:50:28;;;;;;;9.25;5.05;;;;;;;19.69;56.15;101917.47;6065729;23;20030;-85
2022/10/04 08:53:06;;;;;;;8.05;5.15;;;;;;;19.87;58.09;101909.88;6066142;23;20110;-85
2022/10/04 08:56:09;;;;;;;7.50;4.90;;;;;;;20.80;57.10;101902.00;6090535;23;20042;-85
2022/10/04 08:58:59;;;;;;;6.53;4.63;;;;;;;21.63;56.40;101915.31;6005731;23;20724;-85
2022/10/04 09:01:40;;;;;;;8.63;4.80;;;;;;;21.77;49.81;101917.75;6073639;23;20017;-85
2022/10/04 09:04:40;;;;;;;9.50;4.82;;;;;;;22.27;52.02;101920.88;6090976;23;20007;-85
2022/10/04 09:07:18;;;;;;;7.18;4.60;;;;;;;22.40;47.18;101909.00;6090599;23;20014;-85
2022/10/04 09:09:59;;;;;;;7.90;4.30;;;;;;;22.45;48.88;101913.06;6066069;23;20040;-85
2022/10/04 09:12:53;;;;;;;7.57;4.47;;;;;;;22.82;47.14;101921.66;6091379;23;20077;-85
2022/10/04 09:15:40;;;;;;;6.68;3.95;;;;;;;23.25;44.50;101917.97;6090723;23;20006;-85
2022/10/04 09:18:11;;;;;;;8.27;4.35;;;;;;;24.09;44.99;101909.59;6091107;23;20076;-85
2022/10/04 09:20:57;;;;;;;5.60;3.92;;;;;;;24.67;42.42;101906.94;6091997;23;20010;-85
2022/10/04 09:23:42;;;;;;;6.00;3.78;;;;;;;25.02;40.17;101911.75;6091287;23;20002;-84
2022/10/04 09:26:10;;;;;;;5.28;3.45;;;;;;;25.64;39.52;101924.94;6090370;23;20017;-84
2022/10/04 09:28:58;;;;;;;4.47;3.40;;;;;;;26.21;41.20;101920.16;6091674;23;20002;-84
2022/10/04 09:31:56;;;;;;;6.25;3.20;;;;;;;25.76;40.18;101919.13;6090942;23;20428;-84
2022/10/04 09:34:35;;;;;;;5.60;3.45;;;;;;;25.47;39.53;101910.22;6070127;23;20019;-84
2022/10/04 09:37:30;;;;;;;9.57;3.90;;;;;;;25.57;39.79;101908.31;6091546;23;20009;-84
2022/10/04 09:40:34;;;;;;;5.32;3.60;;;;;;;25.75;40.06;101909.25;6075418;23;20007;-84
2022/10/04 09:43:18;;;;;;;9.65;3.72;;;;;;;25.78;36.92;101905.38;6091319;23;20032;-83
2022/10/04 09:45:43;;;;;;;8.48;4.00;;;;;;;26.13;36.07;101904.59;6090482;23;20073;-83
2022/10/04 09:48:38;;;;;;;7.73;3.77;;;;;;;26.60;36.04;101896.22;6108010;23;20006;-83
2022/10/04 09:51:29;;;;;;;7.32;3.65;;;;;;;26.86;36.26;101896.25;6110905;23;20322;-83
2022/10/04 09:54:18;;;;;;;7.50;3.63;;;;;;;27.45;35.86;101901.94;6101629;23;20018;-84
2022/10/04 09:57:04;;;;;;;6.93;3.60;;;;;;;27.72;36.01;101895.41;6098248;23;20016;-84
2022/10/04 09:59:50;;;;;;;7.75;3.50;;;;;;;28.09;34.07;101897.75;6097342;23;20079;-85
2022/10/04 10:02:47;;;;;;;8.57;4.55;;;;;;;28.37;35.03;101897.50;6095973;23;20006;-84
2022/10/04 10:05:34;;;;;;;7.10;3.97;;;;;;;28.56;32.38;101894.47;6095911;23;20021;-85
2022/10/04 10:08:14;;;;;;;5.25;3.65;;;;;;;28.80;32.40;101890.84;6093273;23;20179;-85
2022/10/04 10:13:57;;;;;;;6.13;3.58;;;;;;;29.42;31.64;101898.47;6093178;23;20336;-86
2022/10/04 10:16:40;;;;;;;6.95;3.95;;;;;;;29.28;29.76;101889.94;6108838;23;20063;-88
2022/10/04 10:19:18;;;;;;;9.45;3.88;;;;;;;29.81;31.35;101894.94;6116996;23;20002;-86
2022/10/04 10:22:26;;;;;;;8.07;3.75;;;;;;;30.34;31.92;101890.50;6115202;23;20014;-84
2022/10/04 10:25:00;;;;;;;6.88;3.63;;;;;;;30.26;28.95;101885.91;6116080;23;20018;-85
2022/10/04 10:27:47;;;;;;;8.02;3.97;;;;;;;30.51;30.11;101884.69;6119514;23;20046;-85
2022/10/04 10:30:40;;;;;;;6.72;3.92;;;;;;;30.43;30.91;101879.28;6105699;23;20014;-86
2022/10/04 10:33:37;;;;;;;7.20;4.43;;;;;;;30.75;29.64;101880.91;6092157;23;20065;-85
2022/10/04 10:36:24;;;;;;;7.38;3.58;;;;;;;30.57;28.66;101861.13;6114713;23;20021;-86
2022/10/04 10:39:29;;;;;;;6.30;3.75;;;;;;;31.63;29.98;101865.53;6094986;23;19999;-85
2022/10/04 10:42:26;;;;;;;6.05;3.75;;;;;;;31.91;27.74;101875.84;6113931;23;20417;-86
2022/10/04 10:45:13;;;;;;;6.43;3.60;;;;;;;32.05;29.21;101871.34;6090882;23;20441;-86
2022/10/04 10:47:51;;;;;;;7.55;4.15;;;;;;;32.29;25.55;101867.38;6092683;23;20417;-86
2022/10/04 10:50:57;;;;;;;4.95;3.25;;;;;;;31.79;27.54;101874.63;6092022;23;20010;-86
2022/10/04 10:53:46;;;;;;;5.95;3.50;;;;;;;29.45;30.10;101877.03;6093676;23;20444;-86
2022/10/04 10:56:24;;;;;;;7.50;3.38;;;;;;;29.89;29.24;101879.28;6093920;23;20433;-87
2022/10/04 10:59:14;;;;;;;5.68;3.90;;;;;;;31.26;27.40;101877.47;6092046;23;20409;-85
2022/10/04 11:01:59;;;;;;;7.03;3.53;;;;;;;32.22;25.54;101884.66;6091096;23;20010;-86
2022/10/04 11:04:25;;;;;;;5.88;3.45;;;;;;;32.40;25.04;101884.25;6089807;23;20444;-86
2022/10/04 11:07:17;;;;;;;7.47;3.07;;;;;;;32.15;26.47;101882.91;6090802;23;20010;-83
2022/10/04 11:10:25;;;;;;;7.55;3.70;;;;;;;31.60;28.23;101873.31;6091069;23;20250;-85
2022/10/04 11:13:09;;;;;;;5.22;3.38;;;;;;;30.49;27.05;101874.94;6070786;23;20508;-84
2022/10/04 11:16:12;;;;;;;5.47;3.13;;;;;;;31.32;27.55;101863.00;6090186;23;20373;-87
2022/10/04 11:18:57;;;;;;;7.88;3.40;;;;;;;32.40;26.52;101861.38;6065197;23;20010;-86
2022/10/04 11:21:53;;;;;;;5.55;2.88;;;;;;;33.13;25.88;101860.06;6090923;23;20009;-86
2022/10/04 11:24:43;;;;;;;4.93;3.42;;;;;;;32.99;24.99;101858.28;6090194;23;20485;-86
2022/10/04 11:27:23;;;;;;;5.75;3.42;;;;;;;32.44;23.99;101847.00;6090581;23;20013;-86
2022/10/04 11:30:25;;;;;;;5.18;3.17;;;;;;;32.64;25.86;101852.66;6091178;23;20014;-86
2022/10/04 11:32:56;;;;;;;5.20;3.20;;;;;;;32.03;24.53;101835.75;6090773;23;20010;-85
2022/10/04 11:35:56;;;;;;;7.03;3.40;;;;;;;31.35;26.34;101848.88;6089881;23;20042;-85
2022/10/04 11:38:50;;;;;;;5.30;3.72;;;;;;;31.72;27.32;101842.34;6090260;23;20005;-86
2022/10/04 11:41:49;;;;;;;4.60;3.67;;;;;;;31.88;27.10;101837.69;6090729;23;20061;-86
2022/10/04 11:44:39;;;;;;;4.78;3.08;;;;;;;32.66;26.34;101834.03;6089810;23;20085;-86
2022/10/04 11:47:42;;;;;;;9.95;3.20;;;;;;;33.14;25.27;101831.41;6064482;23;20010;-87
2022/10/04 11:50:31;;;;;;;4.80;3.15;;;;;;;33.87;25.00;101837.28;6089777;23;20086;-86
2022/10/04 11:53:02;;;;;;;3.72;3.13;;;;;;;33.87;22.10;101825.41;6090164;23;19999;-86
2022/10/04 11:55:52;;;;;;;7.88;3.35;;;;;;;34.43;24.75;101825.06;6063779;23;20010;-86
2022/10/04 11:58:38;;;;;;;5.03;3.20;;;;;;;34.38;23.48;101816.56;6090892;23;20425;-87
2022/10/04 12:01:13;;;;;;;4.82;3.10;;;;;;;34.30;22.04;101811.25;6090367;23;20339;-87
2022/10/04 12:04:16;;;;;;;4.95;3.40;;;;;;;33.92;24.45;101820.09;6089604;23;20406;-86
2022/10/04 12:06:57;;;;;;;7.60;3.47;;;;;;;32.63;25.47;101823.41;6089816;23;20417;-86
2022/10/04 12:09:33;;;;;;;4.70;3.17;;;;;;;31.47;24.58;101814.31;6090945;23;20021;-85
2022/10/04 12:12:38;;;;;;;5.82;3.38;;;;;;;30.91;26.35;101821.34;6092138;23;20010;-86
2022/10/04 12:15:40;;;;;;;6.18;3.22;;;;;;;29.80;28.13;101819.97;6065961;23;20425;-86
2022/10/04 12:18:32;;;;;;;6.13;3.17;;;;;;;28.44;29.92;101813.66;6092412;23;20021;-86